sensor_id;sensor_type;location;lat;lon;timestamp;pressure;altitude;pressure_sealevel;temperature;humidity
4024;BME280;2026;51.002;13.668;2022-11-20T00:01:45;98750.22;;;-7.97;79.47
4024;BME280;2026;51.002;13.668;2022-11-20T00:06:48;98746.72;;;-8.08;79.22
4024;BME280;2026;51.002;13.668;2022-11-20T00:11:52;98762.94;;;-8.20;80.09
4024;BME280;2026;51.002;13.668;2022-11-20T00:16:55;98748.78;;;-8.24;79.66
4024;BME280;2026;51.002;13.668;2022-11-20T00:21:58;98750.56;;;-8.13;79.10
4024;BME280;2026;51.002;13.668;2022-11-20T00:27:02;98740.81;;;-8.08;78.48
4024;BME280;2026;51.002;13.668;2022-11-20T00:32:05;98754.56;;;-8.22;79.22
4024;BME280;2026;51.002;13.668;2022-11-20T00:37:08;98755.69;;;-8.38;79.48
4024;BME280;2026;51.002;13.668;2022-11-20T00:42:12;98757.13;;;-8.22;79.17
4024;BME280;2026;51.002;13.668;2022-11-20T00:47:15;98759.31;;;-8.29;79.15
4024;BME280;2026;51.002;13.668;2022-11-20T00:52:18;98767.19;;;-8.32;78.59
4024;BME280;2026;51.002;13.668;2022-11-20T00:57:22;98774.47;;;-8.39;78.52
4024;BME280;2026;51.002;13.668;2022-11-20T01:02:25;98772.00;;;-8.89;81.48
4024;BME280;2026;51.002;13.668;2022-11-20T01:07:28;98757.81;;;-8.56;79.91
4024;BME280;2026;51.002;13.668;2022-11-20T01:12:33;98770.38;;;-8.53;80.42
4024;BME280;2026;51.002;13.668;2022-11-20T01:17:36;98767.41;;;-8.60;80.07
4024;BME280;2026;51.002;13.668;2022-11-20T01:22:38;98770.69;;;-8.58;79.49
4024;BME280;2026;51.002;13.668;2022-11-20T01:27:43;98767.69;;;-8.51;79.63
4024;BME280;2026;51.002;13.668;2022-11-20T01:32:46;98768.84;;;-8.55;78.69
4024;BME280;2026;51.002;13.668;2022-11-20T01:37:49;98751.25;;;-8.47;78.26
4024;BME280;2026;51.002;13.668;2022-11-20T01:43:02;98749.41;;;-8.45;78.33
4024;BME280;2026;51.002;13.668;2022-11-20T01:48:25;98745.69;;;-8.77;79.58
4024;BME280;2026;51.002;13.668;2022-11-20T01:53:32;98737.84;;;-8.62;78.75
4024;BME280;2026;51.002;13.668;2022-11-20T01:58:42;98735.56;;;-9.03;79.93
4024;BME280;2026;51.002;13.668;2022-11-20T02:03:47;98747.16;;;-8.74;78.95
4024;BME280;2026;51.002;13.668;2022-11-20T02:08:51;98744.88;;;-8.66;78.27
4024;BME280;2026;51.002;13.668;2022-11-20T02:13:56;98739.31;;;-8.71;79.26
4024;BME280;2026;51.002;13.668;2022-11-20T02:19:02;98723.78;;;-8.68;79.04
4024;BME280;2026;51.002;13.668;2022-11-20T02:24:12;98728.19;;;-8.70;78.51
4024;BME280;2026;51.002;13.668;2022-11-20T02:29:19;98721.22;;;-8.79;79.18
4024;BME280;2026;51.002;13.668;2022-11-20T02:34:26;98720.00;;;-8.87;78.28
4024;BME280;2026;51.002;13.668;2022-11-20T02:39:30;98720.19;;;-8.77;78.01
4024;BME280;2026;51.002;13.668;2022-11-20T02:44:33;98716.44;;;-8.84;77.82
4024;BME280;2026;51.002;13.668;2022-11-20T02:49:36;98719.91;;;-8.85;78.15
4024;BME280;2026;51.002;13.668;2022-11-20T02:54:41;98719.59;;;-8.80;78.49
4024;BME280;2026;51.002;13.668;2022-11-20T02:59:44;98717.19;;;-9.32;79.87
4024;BME280;2026;51.002;13.668;2022-11-20T03:04:47;98713.94;;;-8.97;78.36
4024;BME280;2026;51.002;13.668;2022-11-20T03:09:51;98712.69;;;-8.91;78.40
4024;BME280;2026;51.002;13.668;2022-11-20T03:14:54;98714.03;;;-8.99;79.23
4024;BME280;2026;51.002;13.668;2022-11-20T03:19:57;98712.16;;;-9.21;80.30
4024;BME280;2026;51.002;13.668;2022-11-20T03:25:01;98708.84;;;-8.97;79.31
4024;BME280;2026;51.002;13.668;2022-11-20T03:30:05;98712.28;;;-8.98;78.30
4024;BME280;2026;51.002;13.668;2022-11-20T03:35:09;98706.09;;;-9.31;79.52
4024;BME280;2026;51.002;13.668;2022-11-20T03:40:13;98708.06;;;-9.10;79.05
4024;BME280;2026;51.002;13.668;2022-11-20T03:45:17;98714.09;;;-9.12;78.78
4024;BME280;2026;51.002;13.668;2022-11-20T03:50:20;98706.03;;;-9.18;79.16
4024;BME280;2026;51.002;13.668;2022-11-20T03:55:24;98706.16;;;-9.20;78.29
4024;BME280;2026;51.002;13.668;2022-11-20T04:00:27;98712.97;;;-9.20;78.67
4024;BME280;2026;51.002;13.668;2022-11-20T04:05:30;98700.34;;;-9.22;78.74
4024;BME280;2026;51.002;13.668;2022-11-20T04:10:36;98706.25;;;-9.21;80.22
4024;BME280;2026;51.002;13.668;2022-11-20T04:15:39;98688.94;;;-9.16;79.46
4024;BME280;2026;51.002;13.668;2022-11-20T04:20:42;98686.50;;;-9.18;78.93
4024;BME280;2026;51.002;13.668;2022-11-20T04:25:47;98683.84;;;-9.16;78.50
4024;BME280;2026;51.002;13.668;2022-11-20T04:30:50;98682.22;;;-9.30;78.63
4024;BME280;2026;51.002;13.668;2022-11-20T04:35:52;98670.09;;;-9.27;78.74
4024;BME280;2026;51.002;13.668;2022-11-20T04:40:58;98670.00;;;-9.25;78.41
4024;BME280;2026;51.002;13.668;2022-11-20T04:46:01;98660.13;;;-9.30;78.60
4024;BME280;2026;51.002;13.668;2022-11-20T04:51:04;98659.13;;;-9.27;77.90
4024;BME280;2026;51.002;13.668;2022-11-20T04:56:11;98664.09;;;-9.26;77.60
4024;BME280;2026;51.002;13.668;2022-11-20T05:01:16;98673.28;;;-9.73;79.67
4024;BME280;2026;51.002;13.668;2022-11-20T05:06:22;98682.97;;;-9.41;78.81
4024;BME280;2026;51.002;13.668;2022-11-20T05:11:26;98683.19;;;-9.44;78.29
4024;BME280;2026;51.002;13.668;2022-11-20T05:16:30;98680.03;;;-9.48;77.76
4024;BME280;2026;51.002;13.668;2022-11-20T05:21:33;98679.13;;;-9.71;79.01
4024;BME280;2026;51.002;13.668;2022-11-20T05:26:38;98671.44;;;-9.58;78.92
4024;BME280;2026;51.002;13.668;2022-11-20T05:31:41;98682.44;;;-9.58;79.45
4024;BME280;2026;51.002;13.668;2022-11-20T05:36:43;98674.03;;;-9.47;79.15
4024;BME280;2026;51.002;13.668;2022-11-20T05:41:48;98669.84;;;-9.48;77.45
4024;BME280;2026;51.002;13.668;2022-11-20T05:47:11;98663.41;;;-9.78;79.31
4024;BME280;2026;51.002;13.668;2022-11-20T05:52:14;98668.41;;;-9.63;78.44
4024;BME280;2026;51.002;13.668;2022-11-20T05:57:18;98659.13;;;-9.64;77.94
4024;BME280;2026;51.002;13.668;2022-11-20T06:02:21;98664.75;;;-9.85;79.84
4024;BME280;2026;51.002;13.668;2022-11-20T06:07:24;98654.47;;;-9.71;78.10
4024;BME280;2026;51.002;13.668;2022-11-20T06:12:28;98649.97;;;-9.67;78.11
4024;BME280;2026;51.002;13.668;2022-11-20T06:17:31;98643.66;;;-9.74;78.06
4024;BME280;2026;51.002;13.668;2022-11-20T06:22:34;98652.88;;;-9.98;79.20
4024;BME280;2026;51.002;13.668;2022-11-20T06:27:38;98648.66;;;-9.73;78.70
4024;BME280;2026;51.002;13.668;2022-11-20T06:32:41;98639.38;;;-9.61;77.99
4024;BME280;2026;51.002;13.668;2022-11-20T06:37:44;98644.22;;;-9.82;78.61
4024;BME280;2026;51.002;13.668;2022-11-20T06:42:48;98642.72;;;-9.60;77.74
4024;BME280;2026;51.002;13.668;2022-11-20T06:47:51;98645.41;;;-9.50;78.15
4024;BME280;2026;51.002;13.668;2022-11-20T06:52:54;98636.94;;;-9.38;78.05
4024;BME280;2026;51.002;13.668;2022-11-20T06:57:58;98642.00;;;-9.62;78.74
4024;BME280;2026;51.002;13.668;2022-11-20T07:03:02;98634.66;;;-9.54;77.71
4024;BME280;2026;51.002;13.668;2022-11-20T07:08:05;98641.16;;;-9.50;79.02
4024;BME280;2026;51.002;13.668;2022-11-20T07:13:10;98641.47;;;-9.30;77.49
4024;BME280;2026;51.002;13.668;2022-11-20T07:18:13;98632.47;;;-9.23;77.80
4024;BME280;2026;51.002;13.668;2022-11-20T07:23:15;98636.72;;;-9.10;77.71
4024;BME280;2026;51.002;13.668;2022-11-20T07:28:20;98633.94;;;-9.07;76.95
4024;BME280;2026;51.002;13.668;2022-11-20T07:33:23;98630.22;;;-9.15;77.72
4024;BME280;2026;51.002;13.668;2022-11-20T07:38:26;98622.81;;;-9.06;77.65
4024;BME280;2026;51.002;13.668;2022-11-20T07:43:30;98614.41;;;-8.95;77.93
4024;BME280;2026;51.002;13.668;2022-11-20T07:48:40;98613.53;;;-8.83;78.33
4024;BME280;2026;51.002;13.668;2022-11-20T07:53:43;98615.34;;;-8.61;77.31
4024;BME280;2026;51.002;13.668;2022-11-20T07:58:47;98617.16;;;-8.74;77.90
4024;BME280;2026;51.002;13.668;2022-11-20T08:03:50;98604.88;;;-8.69;78.14
4024;BME280;2026;51.002;13.668;2022-11-20T08:08:53;98598.78;;;-8.44;77.81
4024;BME280;2026;51.002;13.668;2022-11-20T08:13:57;98606.25;;;-8.29;77.98
4024;BME280;2026;51.002;13.668;2022-11-20T08:19:16;98605.44;;;-7.95;77.75
4024;BME280;2026;51.002;13.668;2022-11-20T08:24:20;98609.75;;;-7.40;76.36
4024;BME280;2026;51.002;13.668;2022-11-20T08:29:25;98604.13;;;-7.23;75.81
4024;BME280;2026;51.002;13.668;2022-11-20T08:34:28;98597.97;;;-6.35;74.77
4024;BME280;2026;51.002;13.668;2022-11-20T08:39:31;98593.16;;;-6.28;74.62
4024;BME280;2026;51.002;13.668;2022-11-20T08:44:35;98598.47;;;-5.69;74.41
4024;BME280;2026;51.002;13.668;2022-11-20T08:49:38;98580.97;;;-4.85;72.45
4024;BME280;2026;51.002;13.668;2022-11-20T08:54:41;98575.13;;;-4.48;71.15
4024;BME280;2026;51.002;13.668;2022-11-20T08:59:45;98571.84;;;-4.02;70.25
4024;BME280;2026;51.002;13.668;2022-11-20T09:05:07;98560.81;;;-4.12;70.63
4024;BME280;2026;51.002;13.668;2022-11-20T09:10:10;98548.25;;;-3.87;70.33
4024;BME280;2026;51.002;13.668;2022-11-20T09:15:30;98544.47;;;-3.11;69.47
4024;BME280;2026;51.002;13.668;2022-11-20T09:20:33;98545.25;;;-2.92;69.04
4024;BME280;2026;51.002;13.668;2022-11-20T09:25:37;98539.31;;;-3.11;69.40
4024;BME280;2026;51.002;13.668;2022-11-20T09:30:41;98547.97;;;-2.67;68.51
4024;BME280;2026;51.002;13.668;2022-11-20T09:35:44;98547.38;;;-3.05;70.21
4024;BME280;2026;51.002;13.668;2022-11-20T09:40:54;98555.72;;;-3.30;71.42
4024;BME280;2026;51.002;13.668;2022-11-20T09:46:07;98558.72;;;-3.35;71.82
4024;BME280;2026;51.002;13.668;2022-11-20T09:51:18;98547.97;;;-3.12;72.32
4024;BME280;2026;51.002;13.668;2022-11-20T09:56:26;98543.03;;;-2.26;70.32
4024;BME280;2026;51.002;13.668;2022-11-20T10:01:34;98550.41;;;-2.04;69.57
4024;BME280;2026;51.002;13.668;2022-11-20T10:06:43;98543.97;;;-1.92;68.71
4024;BME280;2026;51.002;13.668;2022-11-20T10:12:15;98540.41;;;-2.34;69.89
4024;BME280;2026;51.002;13.668;2022-11-20T10:17:34;98531.19;;;-2.80;71.78
4024;BME280;2026;51.002;13.668;2022-11-20T10:23:04;98521.59;;;-2.69;71.69
4024;BME280;2026;51.002;13.668;2022-11-20T10:28:18;98513.41;;;-2.30;70.91
4024;BME280;2026;51.002;13.668;2022-11-20T10:33:31;98512.03;;;-2.07;72.14
4024;BME280;2026;51.002;13.668;2022-11-20T10:39:00;98512.28;;;-1.76;72.21
4024;BME280;2026;51.002;13.668;2022-11-20T10:44:12;98519.38;;;-1.78;71.64
4024;BME280;2026;51.002;13.668;2022-11-20T10:49:20;98515.44;;;-1.99;73.25
4024;BME280;2026;51.002;13.668;2022-11-20T10:54:30;98525.41;;;-2.04;73.06
4024;BME280;2026;51.002;13.668;2022-11-20T11:00:04;98516.81;;;-1.70;73.26
4024;BME280;2026;51.002;13.668;2022-11-20T11:05:18;98514.44;;;-1.30;72.93
4024;BME280;2026;51.002;13.668;2022-11-20T11:10:31;98509.25;;;-1.05;71.87
4024;BME280;2026;51.002;13.668;2022-11-20T11:15:38;98502.31;;;-1.04;72.76
4024;BME280;2026;51.002;13.668;2022-11-20T11:20:50;98511.34;;;-1.33;73.24
4024;BME280;2026;51.002;13.668;2022-11-20T11:25:57;98497.78;;;-0.85;69.77
4024;BME280;2026;51.002;13.668;2022-11-20T11:31:01;98491.03;;;-1.03;70.78
4024;BME280;2026;51.002;13.668;2022-11-20T11:36:16;98480.53;;;-0.85;70.60
4024;BME280;2026;51.002;13.668;2022-11-20T11:41:22;98473.56;;;-0.84;70.67
4024;BME280;2026;51.002;13.668;2022-11-20T11:46:30;98459.75;;;-1.00;72.07
4024;BME280;2026;51.002;13.668;2022-11-20T11:51:39;98453.47;;;-1.80;73.88
4024;BME280;2026;51.002;13.668;2022-11-20T11:56:49;98440.66;;;-0.82;71.27
4024;BME280;2026;51.002;13.668;2022-11-20T12:01:56;98441.78;;;-0.85;71.53
4024;BME280;2026;51.002;13.668;2022-11-20T12:07:08;98440.25;;;-1.11;73.19
4024;BME280;2026;51.002;13.668;2022-11-20T12:12:36;98435.28;;;-1.54;75.55
4024;BME280;2026;51.002;13.668;2022-11-20T12:17:42;98423.97;;;-1.45;75.62
4024;BME280;2026;51.002;13.668;2022-11-20T12:22:51;98417.00;;;-1.28;75.79
4024;BME280;2026;51.002;13.668;2022-11-20T12:28:20;98423.34;;;-1.47;75.27
4024;BME280;2026;51.002;13.668;2022-11-20T12:33:41;98429.28;;;-1.21;74.61
4024;BME280;2026;51.002;13.668;2022-11-20T12:39:07;98430.03;;;-0.96;75.16
4024;BME280;2026;51.002;13.668;2022-11-20T12:44:24;98438.78;;;-1.13;75.83
4024;BME280;2026;51.002;13.668;2022-11-20T12:49:53;98434.75;;;-1.16;76.33
4024;BME280;2026;51.002;13.668;2022-11-20T12:55:15;98430.72;;;-1.19;76.98
4024;BME280;2026;51.002;13.668;2022-11-20T13:00:20;98417.97;;;-1.29;77.01
4024;BME280;2026;51.002;13.668;2022-11-20T13:05:29;98419.13;;;-1.31;78.37
4024;BME280;2026;51.002;13.668;2022-11-20T13:10:41;98416.38;;;-1.21;78.30
4024;BME280;2026;51.002;13.668;2022-11-20T13:15:51;98409.41;;;-1.04;77.53
4024;BME280;2026;51.002;13.668;2022-11-20T13:20:57;98409.72;;;-0.99;77.57
4024;BME280;2026;51.002;13.668;2022-11-20T13:26:13;98402.00;;;-1.07;77.27
4024;BME280;2026;51.002;13.668;2022-11-20T13:31:29;98404.41;;;-1.06;77.60
4024;BME280;2026;51.002;13.668;2022-11-20T13:36:32;98397.59;;;-0.98;77.53
4024;BME280;2026;51.002;13.668;2022-11-20T13:41:39;98395.22;;;-1.00;77.72
4024;BME280;2026;51.002;13.668;2022-11-20T13:46:45;98392.69;;;-1.42;78.77
4024;BME280;2026;51.002;13.668;2022-11-20T13:51:50;98386.06;;;-1.28;78.46
4024;BME280;2026;51.002;13.668;2022-11-20T13:57:06;98388.94;;;-1.22;78.17
4024;BME280;2026;51.002;13.668;2022-11-20T14:02:16;98399.31;;;-1.56;79.32
4024;BME280;2026;51.002;13.668;2022-11-20T14:07:24;98395.44;;;-1.51;79.57
4024;BME280;2026;51.002;13.668;2022-11-20T14:12:31;98401.91;;;-1.72;79.71
4024;BME280;2026;51.002;13.668;2022-11-20T14:17:35;98403.66;;;-1.81;80.35
4024;BME280;2026;51.002;13.668;2022-11-20T14:22:48;98392.06;;;-1.93;80.86
4024;BME280;2026;51.002;13.668;2022-11-20T14:27:54;98398.50;;;-1.81;80.61
4024;BME280;2026;51.002;13.668;2022-11-20T14:33:02;98401.28;;;-1.74;80.16
4024;BME280;2026;51.002;13.668;2022-11-20T14:38:10;98411.06;;;-1.94;80.76
4024;BME280;2026;51.002;13.668;2022-11-20T14:43:20;98405.94;;;-1.78;80.36
4024;BME280;2026;51.002;13.668;2022-11-20T14:48:29;98391.09;;;-1.84;79.65
4024;BME280;2026;51.002;13.668;2022-11-20T14:53:32;98382.56;;;-1.93;79.69
4024;BME280;2026;51.002;13.668;2022-11-20T14:58:37;98384.00;;;-1.82;80.75
4024;BME280;2026;51.002;13.668;2022-11-20T15:03:40;98395.09;;;-2.06;79.11
4024;BME280;2026;51.002;13.668;2022-11-20T15:08:50;98388.47;;;-2.26;79.43
4024;BME280;2026;51.002;13.668;2022-11-20T15:13:55;98397.66;;;-2.23;79.37
4024;BME280;2026;51.002;13.668;2022-11-20T15:18:58;98394.56;;;-2.35;79.91
4024;BME280;2026;51.002;13.668;2022-11-20T15:24:05;98382.16;;;-2.40;79.50
4024;BME280;2026;51.002;13.668;2022-11-20T15:29:13;98382.75;;;-2.54;79.69
4024;BME280;2026;51.002;13.668;2022-11-20T15:34:20;98387.88;;;-2.62;79.74
4024;BME280;2026;51.002;13.668;2022-11-20T15:39:24;98387.38;;;-2.66;80.22
4024;BME280;2026;51.002;13.668;2022-11-20T15:44:28;98390.00;;;-2.58;78.82
4024;BME280;2026;51.002;13.668;2022-11-20T15:49:31;98390.47;;;-2.54;78.14
4024;BME280;2026;51.002;13.668;2022-11-20T15:54:34;98381.59;;;-2.68;78.84
4024;BME280;2026;51.002;13.668;2022-11-20T15:59:39;98373.88;;;-2.68;78.04
4024;BME280;2026;51.002;13.668;2022-11-20T16:04:43;98379.25;;;-2.88;79.46
4024;BME280;2026;51.002;13.668;2022-11-20T16:09:46;98364.81;;;-2.81;77.51
4024;BME280;2026;51.002;13.668;2022-11-20T16:14:50;98376.38;;;-3.19;79.28
4024;BME280;2026;51.002;13.668;2022-11-20T16:20:15;98375.31;;;-3.35;80.42
4024;BME280;2026;51.002;13.668;2022-11-20T16:25:18;98379.31;;;-3.41;80.86
4024;BME280;2026;51.002;13.668;2022-11-20T16:30:23;98387.59;;;-3.29;80.10
4024;BME280;2026;51.002;13.668;2022-11-20T16:35:27;98387.72;;;-3.30;79.75
4024;BME280;2026;51.002;13.668;2022-11-20T16:40:31;98393.13;;;-3.42;80.34
4024;BME280;2026;51.002;13.668;2022-11-20T16:45:39;98399.88;;;-3.41;79.90
4024;BME280;2026;51.002;13.668;2022-11-20T16:50:48;98405.63;;;-3.47;79.84
4024;BME280;2026;51.002;13.668;2022-11-20T16:55:52;98396.41;;;-3.76;79.79
4024;BME280;2026;51.002;13.668;2022-11-20T17:00:56;98383.22;;;-3.81;80.66
4024;BME280;2026;51.002;13.668;2022-11-20T17:05:59;98387.97;;;-3.86;80.63
4024;BME280;2026;51.002;13.668;2022-11-20T17:11:04;98402.22;;;-3.92;80.58
4024;BME280;2026;51.002;13.668;2022-11-20T17:16:11;98407.63;;;-4.13;81.21
4024;BME280;2026;51.002;13.668;2022-11-20T17:21:16;98398.25;;;-4.05;81.14
4024;BME280;2026;51.002;13.668;2022-11-20T17:26:21;98381.75;;;-4.02;80.54
4024;BME280;2026;51.002;13.668;2022-11-20T17:31:28;98396.63;;;-4.24;81.13
4024;BME280;2026;51.002;13.668;2022-11-20T17:36:31;98388.47;;;-4.19;80.40
4024;BME280;2026;51.002;13.668;2022-11-20T17:41:34;98382.22;;;-4.35;81.25
4024;BME280;2026;51.002;13.668;2022-11-20T17:46:39;98391.47;;;-4.42;80.68
4024;BME280;2026;51.002;13.668;2022-11-20T17:51:42;98387.25;;;-4.61;81.79
4024;BME280;2026;51.002;13.668;2022-11-20T17:56:45;98377.22;;;-4.54;81.52
4024;BME280;2026;51.002;13.668;2022-11-20T18:02:07;98372.19;;;-4.46;81.44
4024;BME280;2026;51.002;13.668;2022-11-20T18:07:11;98362.25;;;-4.59;82.08
4024;BME280;2026;51.002;13.668;2022-11-20T18:12:14;98361.00;;;-4.55;81.80
4024;BME280;2026;51.002;13.668;2022-11-20T18:17:18;98355.78;;;-4.63;81.92
4024;BME280;2026;51.002;13.668;2022-11-20T18:22:21;98357.31;;;-4.70;82.51
4024;BME280;2026;51.002;13.668;2022-11-20T18:27:24;98364.22;;;-4.53;82.13
4024;BME280;2026;51.002;13.668;2022-11-20T18:32:29;98364.91;;;-4.79;83.21
4024;BME280;2026;51.002;13.668;2022-11-20T18:37:32;98359.25;;;-4.82;83.19
4024;BME280;2026;51.002;13.668;2022-11-20T18:42:35;98355.75;;;-4.81;83.30
4024;BME280;2026;51.002;13.668;2022-11-20T18:47:57;98356.22;;;-4.68;83.09
4024;BME280;2026;51.002;13.668;2022-11-20T18:53:00;98350.66;;;-4.63;82.58
4024;BME280;2026;51.002;13.668;2022-11-20T18:58:03;98344.38;;;-4.79;83.02
4024;BME280;2026;51.002;13.668;2022-11-20T19:03:07;98342.44;;;-4.95;83.99
4024;BME280;2026;51.002;13.668;2022-11-20T19:08:10;98333.94;;;-4.95;84.03
4024;BME280;2026;51.002;13.668;2022-11-20T19:13:13;98340.19;;;-5.08;84.88
4024;BME280;2026;51.002;13.668;2022-11-20T19:18:18;98337.09;;;-5.11;84.56
4024;BME280;2026;51.002;13.668;2022-11-20T19:23:21;98335.75;;;-4.78;85.96
4024;BME280;2026;51.002;13.668;2022-11-20T19:28:24;98319.75;;;-4.90;84.43
4024;BME280;2026;51.002;13.668;2022-11-20T19:33:28;98317.06;;;-4.70;83.89
4024;BME280;2026;51.002;13.668;2022-11-20T19:38:32;98309.75;;;-4.47;82.81
4024;BME280;2026;51.002;13.668;2022-11-20T19:43:35;98309.16;;;-4.59;83.25
4024;BME280;2026;51.002;13.668;2022-11-20T19:48:39;98311.53;;;-4.47;83.16
4024;BME280;2026;51.002;13.668;2022-11-20T19:53:43;98299.94;;;-4.33;82.96
4024;BME280;2026;51.002;13.668;2022-11-20T19:58:46;98302.19;;;-4.30;82.58
4024;BME280;2026;51.002;13.668;2022-11-20T20:03:51;98312.59;;;-4.13;81.85
4024;BME280;2026;51.002;13.668;2022-11-20T20:08:55;98299.09;;;-4.15;82.42
4024;BME280;2026;51.002;13.668;2022-11-20T20:13:59;98285.38;;;-4.06;82.97
4024;BME280;2026;51.002;13.668;2022-11-20T20:19:04;98286.88;;;-3.95;82.64
4024;BME280;2026;51.002;13.668;2022-11-20T20:24:08;98274.41;;;-4.35;83.43
4024;BME280;2026;51.002;13.668;2022-11-20T20:29:12;98264.50;;;-4.48;83.46
4024;BME280;2026;51.002;13.668;2022-11-20T20:34:16;98278.94;;;-4.65;84.89
4024;BME280;2026;51.002;13.668;2022-11-20T20:39:19;98276.16;;;-4.53;84.89
4024;BME280;2026;51.002;13.668;2022-11-20T20:44:23;98260.09;;;-4.37;83.86
4024;BME280;2026;51.002;13.668;2022-11-20T20:49:45;98256.22;;;-4.23;84.36
4024;BME280;2026;51.002;13.668;2022-11-20T20:54:48;98260.69;;;-4.43;85.00
4024;BME280;2026;51.002;13.668;2022-11-20T20:59:51;98248.19;;;-4.20;83.79
4024;BME280;2026;51.002;13.668;2022-11-20T21:04:55;98241.53;;;-4.31;84.03
4024;BME280;2026;51.002;13.668;2022-11-20T21:09:58;98237.72;;;-4.27;84.04
4024;BME280;2026;51.002;13.668;2022-11-20T21:15:01;98234.41;;;-4.19;83.53
4024;BME280;2026;51.002;13.668;2022-11-20T21:20:07;98206.06;;;-4.09;83.86
4024;BME280;2026;51.002;13.668;2022-11-20T21:25:30;98195.78;;;-4.09;83.85
4024;BME280;2026;51.002;13.668;2022-11-20T21:30:33;98192.66;;;-3.95;83.66
4024;BME280;2026;51.002;13.668;2022-11-20T21:35:37;98166.78;;;-3.93;83.30
4024;BME280;2026;51.002;13.668;2022-11-20T21:40:41;98164.63;;;-3.80;83.10
4024;BME280;2026;51.002;13.668;2022-11-20T21:45:44;98159.38;;;-3.70;83.14
4024;BME280;2026;51.002;13.668;2022-11-20T21:50:49;98162.81;;;-3.53;82.81
4024;BME280;2026;51.002;13.668;2022-11-20T21:55:52;98137.16;;;-3.28;81.62
4024;BME280;2026;51.002;13.668;2022-11-20T22:00:56;98132.75;;;-3.44;82.58
4024;BME280;2026;51.002;13.668;2022-11-20T22:06:01;98143.47;;;-3.65;83.00
4024;BME280;2026;51.002;13.668;2022-11-20T22:11:05;98140.88;;;-4.08;85.48
4024;BME280;2026;51.002;13.668;2022-11-20T22:16:10;98110.03;;;-3.73;83.89
4024;BME280;2026;51.002;13.668;2022-11-20T22:21:16;98113.47;;;-3.56;83.92
4024;BME280;2026;51.002;13.668;2022-11-20T22:26:21;98109.13;;;-3.56;83.78
4024;BME280;2026;51.002;13.668;2022-11-20T22:31:25;98102.66;;;-3.77;84.15
4024;BME280;2026;51.002;13.668;2022-11-20T22:36:30;98093.41;;;-4.04;85.88
4024;BME280;2026;51.002;13.668;2022-11-20T22:41:33;98088.06;;;-3.59;84.46
4024;BME280;2026;51.002;13.668;2022-11-20T22:46:36;98081.19;;;-3.42;84.73
4024;BME280;2026;51.002;13.668;2022-11-20T22:51:41;98074.31;;;-3.25;84.07
4024;BME280;2026;51.002;13.668;2022-11-20T22:56:44;98065.16;;;-3.19;84.66
4024;BME280;2026;51.002;13.668;2022-11-20T23:01:47;98052.28;;;-3.19;84.89
4024;BME280;2026;51.002;13.668;2022-11-20T23:06:51;98056.09;;;-3.49;85.70
4024;BME280;2026;51.002;13.668;2022-11-20T23:11:54;98050.50;;;-3.44;86.54
4024;BME280;2026;51.002;13.668;2022-11-20T23:16:57;98032.50;;;-3.27;85.90
4024;BME280;2026;51.002;13.668;2022-11-20T23:22:01;98023.16;;;-3.12;85.64
4024;BME280;2026;51.002;13.668;2022-11-20T23:27:04;98020.44;;;-3.10;85.97
4024;BME280;2026;51.002;13.668;2022-11-20T23:32:07;98011.75;;;-3.67;88.15
4024;BME280;2026;51.002;13.668;2022-11-20T23:37:12;98015.78;;;-3.73;88.95
4024;BME280;2026;51.002;13.668;2022-11-20T23:42:15;98008.38;;;-3.59;87.69
4024;BME280;2026;51.002;13.668;2022-11-20T23:47:18;97989.13;;;-3.55;87.98
4024;BME280;2026;51.002;13.668;2022-11-20T23:52:22;97985.56;;;-3.29;87.34
4024;BME280;2026;51.002;13.668;2022-11-20T23:57:26;97969.19;;;-3.53;88.32
